sensor_id;sensor_type;location;lat;lon;timestamp;P1;durP1;ratioP1;P2;durP2;ratioP2
12852;SDS011;6495;51.808;7.478;2022-08-04T00:00:58;4.22;;;1.70;;
12852;SDS011;6495;51.808;7.478;2022-08-04T00:03:38;5.03;;;1.85;;
12852;SDS011;6495;51.808;7.478;2022-08-04T00:06:20;3.70;;;1.70;;
12852;SDS011;6495;51.808;7.478;2022-08-04T00:09:03;7.97;;;1.73;;
12852;SDS011;6495;51.808;7.478;2022-08-04T00:11:44;4.13;;;1.83;;
12852;SDS011;6495;51.808;7.478;2022-08-04T00:14:15;8.75;;;1.90;;
12852;SDS011;6495;51.808;7.478;2022-08-04T00:16:49;4.93;;;2.03;;
12852;SDS011;6495;51.808;7.478;2022-08-04T00:19:22;3.78;;;1.80;;
12852;SDS011;6495;51.808;7.478;2022-08-04T00:21:59;5.30;;;2.08;;
12852;SDS011;6495;51.808;7.478;2022-08-04T00:24:31;7.43;;;1.98;;
12852;SDS011;6495;51.808;7.478;2022-08-04T00:27:03;9.63;;;1.88;;
12852;SDS011;6495;51.808;7.478;2022-08-04T00:29:33;7.68;;;2.25;;
12852;SDS011;6495;51.808;7.478;2022-08-04T00:32:06;4.88;;;1.92;;
12852;SDS011;6495;51.808;7.478;2022-08-04T00:34:38;5.28;;;2.10;;
12852;SDS011;6495;51.808;7.478;2022-08-04T00:37:08;3.22;;;1.63;;
12852;SDS011;6495;51.808;7.478;2022-08-04T00:39:37;6.50;;;2.13;;
12852;SDS011;6495;51.808;7.478;2022-08-04T00:42:19;5.50;;;1.90;;
12852;SDS011;6495;51.808;7.478;2022-08-04T00:45:40;4.65;;;2.08;;
12852;SDS011;6495;51.808;7.478;2022-08-04T00:49:05;7.65;;;2.00;;
12852;SDS011;6495;51.808;7.478;2022-08-04T00:52:21;4.07;;;2.33;;
12852;SDS011;6495;51.808;7.478;2022-08-04T00:55:11;7.35;;;2.30;;
12852;SDS011;6495;51.808;7.478;2022-08-04T00:58:05;4.55;;;2.20;;
12852;SDS011;6495;51.808;7.478;2022-08-04T01:01:02;6.95;;;1.98;;
12852;SDS011;6495;51.808;7.478;2022-08-04T01:03:36;8.90;;;2.22;;
12852;SDS011;6495;51.808;7.478;2022-08-04T01:06:20;5.30;;;2.40;;
12852;SDS011;6495;51.808;7.478;2022-08-04T01:09:05;3.65;;;1.75;;
12852;SDS011;6495;51.808;7.478;2022-08-04T01:12:02;4.80;;;2.03;;
12852;SDS011;6495;51.808;7.478;2022-08-04T01:14:56;6.57;;;1.95;;
12852;SDS011;6495;51.808;7.478;2022-08-04T01:17:36;4.85;;;1.95;;
12852;SDS011;6495;51.808;7.478;2022-08-04T01:20:20;2.97;;;1.90;;
12852;SDS011;6495;51.808;7.478;2022-08-04T01:23:04;13.05;;;2.25;;
12852;SDS011;6495;51.808;7.478;2022-08-04T01:26:32;4.72;;;2.03;;
12852;SDS011;6495;51.808;7.478;2022-08-04T01:29:26;5.93;;;2.17;;
12852;SDS011;6495;51.808;7.478;2022-08-04T01:32:13;3.50;;;1.85;;
12852;SDS011;6495;51.808;7.478;2022-08-04T01:34:52;5.47;;;1.90;;
12852;SDS011;6495;51.808;7.478;2022-08-04T01:37:39;3.40;;;1.70;;
12852;SDS011;6495;51.808;7.478;2022-08-04T01:40:22;5.47;;;1.70;;
12852;SDS011;6495;51.808;7.478;2022-08-04T01:42:54;4.22;;;2.00;;
12852;SDS011;6495;51.808;7.478;2022-08-04T01:45:29;6.93;;;2.10;;
12852;SDS011;6495;51.808;7.478;2022-08-04T01:47:58;3.03;;;1.88;;
12852;SDS011;6495;51.808;7.478;2022-08-04T01:50:30;2.97;;;1.85;;
12852;SDS011;6495;51.808;7.478;2022-08-04T01:53:02;4.55;;;1.90;;
12852;SDS011;6495;51.808;7.478;2022-08-04T01:55:30;5.65;;;2.00;;
12852;SDS011;6495;51.808;7.478;2022-08-04T01:58:20;5.63;;;2.17;;
12852;SDS011;6495;51.808;7.478;2022-08-04T02:00:56;6.03;;;2.22;;
12852;SDS011;6495;51.808;7.478;2022-08-04T02:03:34;5.93;;;2.17;;
12852;SDS011;6495;51.808;7.478;2022-08-04T02:06:28;9.98;;;2.40;;
12852;SDS011;6495;51.808;7.478;2022-08-04T02:09:09;5.43;;;2.03;;
12852;SDS011;6495;51.808;7.478;2022-08-04T02:11:48;4.88;;;1.92;;
12852;SDS011;6495;51.808;7.478;2022-08-04T02:14:30;5.13;;;2.03;;
12852;SDS011;6495;51.808;7.478;2022-08-04T02:17:12;6.47;;;2.17;;
12852;SDS011;6495;51.808;7.478;2022-08-04T02:19:56;9.38;;;2.45;;
12852;SDS011;6495;51.808;7.478;2022-08-04T02:22:33;7.07;;;2.55;;
12852;SDS011;6495;51.808;7.478;2022-08-04T02:25:16;8.75;;;2.45;;
12852;SDS011;6495;51.808;7.478;2022-08-04T02:27:55;9.10;;;2.13;;
12852;SDS011;6495;51.808;7.478;2022-08-04T02:30:40;3.67;;;2.30;;
12852;SDS011;6495;51.808;7.478;2022-08-04T02:33:22;5.88;;;2.25;;
12852;SDS011;6495;51.808;7.478;2022-08-04T02:35:58;5.25;;;2.25;;
12852;SDS011;6495;51.808;7.478;2022-08-04T02:41:27;8.35;;;2.10;;
12852;SDS011;6495;51.808;7.478;2022-08-04T02:43:58;7.50;;;2.67;;
12852;SDS011;6495;51.808;7.478;2022-08-04T02:46:30;5.05;;;2.22;;
12852;SDS011;6495;51.808;7.478;2022-08-04T02:49:03;7.00;;;2.40;;
12852;SDS011;6495;51.808;7.478;2022-08-04T02:51:34;6.00;;;2.17;;
12852;SDS011;6495;51.808;7.478;2022-08-04T02:54:06;8.10;;;2.60;;
12852;SDS011;6495;51.808;7.478;2022-08-04T02:56:36;8.75;;;2.42;;
12852;SDS011;6495;51.808;7.478;2022-08-04T02:59:06;6.25;;;2.60;;
12852;SDS011;6495;51.808;7.478;2022-08-04T03:01:37;10.73;;;2.30;;
12852;SDS011;6495;51.808;7.478;2022-08-04T03:04:30;6.53;;;2.47;;
12852;SDS011;6495;51.808;7.478;2022-08-04T03:10:48;6.85;;;2.42;;
12852;SDS011;6495;51.808;7.478;2022-08-04T03:14:00;8.02;;;2.50;;
12852;SDS011;6495;51.808;7.478;2022-08-04T03:16:59;7.85;;;2.50;;
12852;SDS011;6495;51.808;7.478;2022-08-04T03:20:27;4.07;;;2.40;;
12852;SDS011;6495;51.808;7.478;2022-08-04T03:26:34;4.13;;;2.42;;
12852;SDS011;6495;51.808;7.478;2022-08-04T03:29:44;6.43;;;2.53;;
12852;SDS011;6495;51.808;7.478;2022-08-04T03:43:07;6.10;;;2.40;;
12852;SDS011;6495;51.808;7.478;2022-08-04T03:46:42;11.70;;;2.47;;
12852;SDS011;6495;51.808;7.478;2022-08-04T03:53:23;9.77;;;2.65;;
12852;SDS011;6495;51.808;7.478;2022-08-04T03:56:17;6.88;;;2.90;;
12852;SDS011;6495;51.808;7.478;2022-08-04T04:02:52;5.65;;;2.33;;
12852;SDS011;6495;51.808;7.478;2022-08-04T04:09:24;5.13;;;2.45;;
12852;SDS011;6495;51.808;7.478;2022-08-04T04:12:42;9.60;;;2.50;;
12852;SDS011;6495;51.808;7.478;2022-08-04T04:15:55;5.13;;;2.83;;
12852;SDS011;6495;51.808;7.478;2022-08-04T04:18:50;7.43;;;2.95;;
12852;SDS011;6495;51.808;7.478;2022-08-04T04:21:39;6.93;;;2.63;;
12852;SDS011;6495;51.808;7.478;2022-08-04T04:24:34;7.68;;;2.67;;
12852;SDS011;6495;51.808;7.478;2022-08-04T04:27:23;6.78;;;2.67;;
12852;SDS011;6495;51.808;7.478;2022-08-04T04:30:06;4.55;;;2.47;;
12852;SDS011;6495;51.808;7.478;2022-08-04T04:32:44;5.25;;;2.88;;
12852;SDS011;6495;51.808;7.478;2022-08-04T04:35:37;6.47;;;2.50;;
12852;SDS011;6495;51.808;7.478;2022-08-04T04:38:28;6.15;;;2.50;;
12852;SDS011;6495;51.808;7.478;2022-08-04T04:41:17;5.80;;;2.60;;
12852;SDS011;6495;51.808;7.478;2022-08-04T04:44:26;5.80;;;2.63;;
12852;SDS011;6495;51.808;7.478;2022-08-04T04:47:41;6.10;;;2.65;;
12852;SDS011;6495;51.808;7.478;2022-08-04T04:50:42;7.22;;;2.92;;
12852;SDS011;6495;51.808;7.478;2022-08-04T04:53:26;6.63;;;2.75;;
12852;SDS011;6495;51.808;7.478;2022-08-04T04:56:03;8.20;;;2.40;;
12852;SDS011;6495;51.808;7.478;2022-08-04T04:58:42;4.20;;;2.45;;
12852;SDS011;6495;51.808;7.478;2022-08-04T05:04:43;5.20;;;2.40;;
12852;SDS011;6495;51.808;7.478;2022-08-04T05:11:45;6.47;;;2.92;;
12852;SDS011;6495;51.808;7.478;2022-08-04T05:15:22;8.55;;;3.55;;
12852;SDS011;6495;51.808;7.478;2022-08-04T05:17:58;9.40;;;3.13;;
12852;SDS011;6495;51.808;7.478;2022-08-04T05:20:39;11.45;;;3.53;;
12852;SDS011;6495;51.808;7.478;2022-08-04T05:23:13;9.05;;;3.63;;
12852;SDS011;6495;51.808;7.478;2022-08-04T05:25:48;9.85;;;3.70;;
12852;SDS011;6495;51.808;7.478;2022-08-04T05:28:25;6.80;;;3.30;;
12852;SDS011;6495;51.808;7.478;2022-08-04T05:31:04;7.50;;;3.83;;
12852;SDS011;6495;51.808;7.478;2022-08-04T05:33:39;9.60;;;3.65;;
12852;SDS011;6495;51.808;7.478;2022-08-04T05:36:16;14.18;;;3.78;;
12852;SDS011;6495;51.808;7.478;2022-08-04T05:39:06;7.47;;;3.78;;
12852;SDS011;6495;51.808;7.478;2022-08-04T05:41:41;5.97;;;3.42;;
12852;SDS011;6495;51.808;7.478;2022-08-04T05:44:21;7.53;;;3.45;;
12852;SDS011;6495;51.808;7.478;2022-08-04T05:46:55;6.85;;;3.40;;
12852;SDS011;6495;51.808;7.478;2022-08-04T05:49:26;10.05;;;3.63;;
12852;SDS011;6495;51.808;7.478;2022-08-04T05:51:57;7.88;;;4.22;;
12852;SDS011;6495;51.808;7.478;2022-08-04T05:54:29;8.35;;;2.97;;
12852;SDS011;6495;51.808;7.478;2022-08-04T05:57:02;6.32;;;3.10;;
12852;SDS011;6495;51.808;7.478;2022-08-04T05:59:33;4.95;;;3.00;;
12852;SDS011;6495;51.808;7.478;2022-08-04T06:02:13;5.05;;;2.80;;
12852;SDS011;6495;51.808;7.478;2022-08-04T06:04:46;7.47;;;2.95;;
12852;SDS011;6495;51.808;7.478;2022-08-04T06:07:17;4.63;;;3.03;;
12852;SDS011;6495;51.808;7.478;2022-08-04T06:09:46;3.35;;;2.70;;
12852;SDS011;6495;51.808;7.478;2022-08-04T06:12:16;7.80;;;3.10;;
12852;SDS011;6495;51.808;7.478;2022-08-04T06:14:52;4.78;;;2.95;;
12852;SDS011;6495;51.808;7.478;2022-08-04T06:17:27;6.32;;;3.10;;
12852;SDS011;6495;51.808;7.478;2022-08-04T06:20:20;5.47;;;2.88;;
12852;SDS011;6495;51.808;7.478;2022-08-04T06:23:00;5.82;;;3.30;;
12852;SDS011;6495;51.808;7.478;2022-08-04T06:25:35;5.97;;;3.42;;
12852;SDS011;6495;51.808;7.478;2022-08-04T06:28:09;5.47;;;2.85;;
12852;SDS011;6495;51.808;7.478;2022-08-04T06:30:39;4.38;;;2.78;;
12852;SDS011;6495;51.808;7.478;2022-08-04T06:33:16;5.28;;;2.90;;
12852;SDS011;6495;51.808;7.478;2022-08-04T06:35:53;3.05;;;2.67;;
12852;SDS011;6495;51.808;7.478;2022-08-04T06:38:25;3.65;;;2.60;;
12852;SDS011;6495;51.808;7.478;2022-08-04T06:40:56;4.85;;;2.72;;
12852;SDS011;6495;51.808;7.478;2022-08-04T06:43:29;6.05;;;2.70;;
12852;SDS011;6495;51.808;7.478;2022-08-04T06:46:08;7.38;;;3.08;;
12852;SDS011;6495;51.808;7.478;2022-08-04T06:48:43;5.15;;;2.70;;
12852;SDS011;6495;51.808;7.478;2022-08-04T06:51:16;8.00;;;2.72;;
12852;SDS011;6495;51.808;7.478;2022-08-04T06:53:58;5.40;;;2.47;;
12852;SDS011;6495;51.808;7.478;2022-08-04T06:56:26;6.60;;;2.53;;
12852;SDS011;6495;51.808;7.478;2022-08-04T06:58:58;7.10;;;2.45;;
12852;SDS011;6495;51.808;7.478;2022-08-04T07:01:28;6.55;;;2.63;;
12852;SDS011;6495;51.808;7.478;2022-08-04T07:04:00;4.07;;;2.63;;
12852;SDS011;6495;51.808;7.478;2022-08-04T07:06:34;2.67;;;2.45;;
12852;SDS011;6495;51.808;7.478;2022-08-04T07:09:03;4.15;;;2.60;;
12852;SDS011;6495;51.808;7.478;2022-08-04T07:11:33;6.47;;;2.97;;
12852;SDS011;6495;51.808;7.478;2022-08-04T07:14:10;3.13;;;2.30;;
12852;SDS011;6495;51.808;7.478;2022-08-04T07:16:41;5.32;;;2.20;;
12852;SDS011;6495;51.808;7.478;2022-08-04T07:19:14;3.60;;;2.40;;
12852;SDS011;6495;51.808;7.478;2022-08-04T07:21:44;3.47;;;2.25;;
12852;SDS011;6495;51.808;7.478;2022-08-04T07:24:34;3.05;;;2.20;;
12852;SDS011;6495;51.808;7.478;2022-08-04T07:27:08;5.28;;;2.80;;
12852;SDS011;6495;51.808;7.478;2022-08-04T07:29:36;4.50;;;2.28;;
12852;SDS011;6495;51.808;7.478;2022-08-04T07:32:08;4.47;;;2.35;;
12852;SDS011;6495;51.808;7.478;2022-08-04T07:34:40;3.20;;;2.60;;
12852;SDS011;6495;51.808;7.478;2022-08-04T07:37:15;5.07;;;2.20;;
12852;SDS011;6495;51.808;7.478;2022-08-04T07:40:04;4.20;;;2.30;;
12852;SDS011;6495;51.808;7.478;2022-08-04T07:42:35;3.60;;;2.35;;
12852;SDS011;6495;51.808;7.478;2022-08-04T07:45:04;3.72;;;2.20;;
12852;SDS011;6495;51.808;7.478;2022-08-04T07:47:39;4.82;;;2.33;;
12852;SDS011;6495;51.808;7.478;2022-08-04T07:50:31;5.97;;;2.17;;
12852;SDS011;6495;51.808;7.478;2022-08-04T07:53:00;3.65;;;2.40;;
12852;SDS011;6495;51.808;7.478;2022-08-04T07:55:49;4.40;;;2.58;;
12852;SDS011;6495;51.808;7.478;2022-08-04T07:58:18;2.67;;;2.22;;
12852;SDS011;6495;51.808;7.478;2022-08-04T08:00:46;4.85;;;2.45;;
12852;SDS011;6495;51.808;7.478;2022-08-04T08:03:16;4.63;;;2.15;;
12852;SDS011;6495;51.808;7.478;2022-08-04T08:05:51;4.57;;;2.30;;
12852;SDS011;6495;51.808;7.478;2022-08-04T08:08:42;6.40;;;2.22;;
12852;SDS011;6495;51.808;7.478;2022-08-04T08:11:11;4.35;;;1.95;;
12852;SDS011;6495;51.808;7.478;2022-08-04T08:13:42;3.08;;;2.40;;
12852;SDS011;6495;51.808;7.478;2022-08-04T08:16:14;4.30;;;2.33;;
12852;SDS011;6495;51.808;7.478;2022-08-04T08:18:50;3.17;;;2.50;;
12852;SDS011;6495;51.808;7.478;2022-08-04T08:21:22;5.43;;;2.50;;
12852;SDS011;6495;51.808;7.478;2022-08-04T08:23:51;6.65;;;2.47;;
12852;SDS011;6495;51.808;7.478;2022-08-04T08:26:23;5.15;;;2.55;;
12852;SDS011;6495;51.808;7.478;2022-08-04T08:28:53;3.67;;;2.20;;
12852;SDS011;6495;51.808;7.478;2022-08-04T08:31:22;3.33;;;2.30;;
12852;SDS011;6495;51.808;7.478;2022-08-04T08:34:11;3.35;;;2.42;;
12852;SDS011;6495;51.808;7.478;2022-08-04T08:36:57;2.95;;;2.58;;
12852;SDS011;6495;51.808;7.478;2022-08-04T08:39:35;6.07;;;2.55;;
12852;SDS011;6495;51.808;7.478;2022-08-04T08:42:23;3.75;;;2.47;;
12852;SDS011;6495;51.808;7.478;2022-08-04T08:52:33;11.00;;;2.40;;
12852;SDS011;6495;51.808;7.478;2022-08-04T08:55:38;2.45;;;2.25;;
12852;SDS011;6495;51.808;7.478;2022-08-04T08:58:41;4.75;;;2.72;;
12852;SDS011;6495;51.808;7.478;2022-08-04T09:01:33;2.70;;;2.45;;
12852;SDS011;6495;51.808;7.478;2022-08-04T09:04:56;2.65;;;2.28;;
12852;SDS011;6495;51.808;7.478;2022-08-04T09:07:56;2.55;;;2.17;;
12852;SDS011;6495;51.808;7.478;2022-08-04T09:10:41;3.08;;;2.17;;
12852;SDS011;6495;51.808;7.478;2022-08-04T09:13:16;5.78;;;2.40;;
12852;SDS011;6495;51.808;7.478;2022-08-04T09:15:56;3.90;;;2.17;;
12852;SDS011;6495;51.808;7.478;2022-08-04T09:18:44;6.63;;;2.17;;
12852;SDS011;6495;51.808;7.478;2022-08-04T09:21:23;3.08;;;2.20;;
12852;SDS011;6495;51.808;7.478;2022-08-04T09:24:05;3.60;;;2.65;;
12852;SDS011;6495;51.808;7.478;2022-08-04T09:27:07;3.45;;;2.28;;
12852;SDS011;6495;51.808;7.478;2022-08-04T09:29:47;3.75;;;2.38;;
12852;SDS011;6495;51.808;7.478;2022-08-04T09:32:47;2.67;;;2.10;;
12852;SDS011;6495;51.808;7.478;2022-08-04T09:35:46;4.13;;;2.20;;
12852;SDS011;6495;51.808;7.478;2022-08-04T09:38:40;3.25;;;2.38;;
12852;SDS011;6495;51.808;7.478;2022-08-04T09:41:22;5.07;;;2.55;;
12852;SDS011;6495;51.808;7.478;2022-08-04T09:44:22;4.03;;;2.47;;
12852;SDS011;6495;51.808;7.478;2022-08-04T09:47:24;5.57;;;2.50;;
12852;SDS011;6495;51.808;7.478;2022-08-04T09:50:23;3.65;;;2.35;;
12852;SDS011;6495;51.808;7.478;2022-08-04T09:53:17;3.03;;;2.20;;
12852;SDS011;6495;51.808;7.478;2022-08-04T09:56:17;6.72;;;2.30;;
12852;SDS011;6495;51.808;7.478;2022-08-04T09:59:08;3.35;;;2.30;;
12852;SDS011;6495;51.808;7.478;2022-08-04T10:01:53;2.67;;;2.10;;
12852;SDS011;6495;51.808;7.478;2022-08-04T10:04:34;3.10;;;2.33;;
12852;SDS011;6495;51.808;7.478;2022-08-04T10:07:18;4.57;;;2.03;;
12852;SDS011;6495;51.808;7.478;2022-08-04T10:10:28;3.17;;;2.33;;
12852;SDS011;6495;51.808;7.478;2022-08-04T10:13:11;3.15;;;2.15;;
12852;SDS011;6495;51.808;7.478;2022-08-04T10:16:13;4.95;;;1.92;;
12852;SDS011;6495;51.808;7.478;2022-08-04T10:19:14;5.25;;;2.45;;
12852;SDS011;6495;51.808;7.478;2022-08-04T10:22:03;2.10;;;1.83;;
12852;SDS011;6495;51.808;7.478;2022-08-04T10:24:58;7.50;;;2.30;;
12852;SDS011;6495;51.808;7.478;2022-08-04T10:28:19;2.38;;;1.73;;
12852;SDS011;6495;51.808;7.478;2022-08-04T10:31:03;3.17;;;1.83;;
12852;SDS011;6495;51.808;7.478;2022-08-04T10:33:41;2.70;;;2.45;;
12852;SDS011;6495;51.808;7.478;2022-08-04T10:36:32;4.50;;;1.83;;
12852;SDS011;6495;51.808;7.478;2022-08-04T10:39:36;6.22;;;2.33;;
12852;SDS011;6495;51.808;7.478;2022-08-04T10:42:35;3.10;;;2.17;;
12852;SDS011;6495;51.808;7.478;2022-08-04T10:45:17;2.72;;;2.28;;
12852;SDS011;6495;51.808;7.478;2022-08-04T10:47:55;3.45;;;2.40;;
12852;SDS011;6495;51.808;7.478;2022-08-04T10:50:39;3.33;;;2.22;;
12852;SDS011;6495;51.808;7.478;2022-08-04T10:53:22;2.00;;;1.80;;
12852;SDS011;6495;51.808;7.478;2022-08-04T10:55:56;2.13;;;1.90;;
12852;SDS011;6495;51.808;7.478;2022-08-04T10:58:38;4.63;;;2.17;;
12852;SDS011;6495;51.808;7.478;2022-08-04T11:01:16;3.88;;;2.22;;
12852;SDS011;6495;51.808;7.478;2022-08-04T11:04:13;5.32;;;1.90;;
12852;SDS011;6495;51.808;7.478;2022-08-04T11:06:52;3.47;;;1.92;;
12852;SDS011;6495;51.808;7.478;2022-08-04T11:09:24;4.55;;;2.00;;
12852;SDS011;6495;51.808;7.478;2022-08-04T11:11:56;1.75;;;1.65;;
12852;SDS011;6495;51.808;7.478;2022-08-04T11:14:35;4.30;;;1.70;;
12852;SDS011;6495;51.808;7.478;2022-08-04T11:17:21;2.80;;;1.80;;
12852;SDS011;6495;51.808;7.478;2022-08-04T11:19:56;4.63;;;1.83;;
12852;SDS011;6495;51.808;7.478;2022-08-04T11:22:54;7.40;;;2.05;;
12852;SDS011;6495;51.808;7.478;2022-08-04T11:25:34;4.75;;;1.98;;
12852;SDS011;6495;51.808;7.478;2022-08-04T11:28:19;4.03;;;1.90;;
12852;SDS011;6495;51.808;7.478;2022-08-04T11:31:00;9.45;;;2.22;;
12852;SDS011;6495;51.808;7.478;2022-08-04T11:33:36;3.08;;;1.90;;
12852;SDS011;6495;51.808;7.478;2022-08-04T11:36:16;3.83;;;2.03;;
12852;SDS011;6495;51.808;7.478;2022-08-04T11:38:54;7.38;;;2.10;;
12852;SDS011;6495;51.808;7.478;2022-08-04T11:41:46;7.90;;;2.22;;
12852;SDS011;6495;51.808;7.478;2022-08-04T11:44:22;4.72;;;2.00;;
12852;SDS011;6495;51.808;7.478;2022-08-04T11:46:59;3.72;;;2.08;;
12852;SDS011;6495;51.808;7.478;2022-08-04T11:49:37;3.22;;;1.88;;
12852;SDS011;6495;51.808;7.478;2022-08-04T11:52:22;3.53;;;1.88;;
12852;SDS011;6495;51.808;7.478;2022-08-04T11:54:53;4.28;;;2.10;;
12852;SDS011;6495;51.808;7.478;2022-08-04T11:57:23;2.20;;;2.00;;
12852;SDS011;6495;51.808;7.478;2022-08-04T12:00:03;5.97;;;2.40;;
12852;SDS011;6495;51.808;7.478;2022-08-04T12:02:40;3.47;;;2.03;;
12852;SDS011;6495;51.808;7.478;2022-08-04T12:05:35;2.17;;;1.90;;
12852;SDS011;6495;51.808;7.478;2022-08-04T12:08:22;2.35;;;1.80;;
12852;SDS011;6495;51.808;7.478;2022-08-04T12:11:12;2.45;;;1.90;;
12852;SDS011;6495;51.808;7.478;2022-08-04T12:13:54;4.65;;;2.47;;
12852;SDS011;6495;51.808;7.478;2022-08-04T12:16:42;2.60;;;2.17;;
12852;SDS011;6495;51.808;7.478;2022-08-04T12:19:23;3.53;;;2.30;;
12852;SDS011;6495;51.808;7.478;2022-08-04T12:22:22;2.83;;;2.33;;
12852;SDS011;6495;51.808;7.478;2022-08-04T12:24:58;7.38;;;2.40;;
12852;SDS011;6495;51.808;7.478;2022-08-04T12:27:32;3.08;;;2.03;;
12852;SDS011;6495;51.808;7.478;2022-08-04T12:30:08;3.53;;;2.15;;
12852;SDS011;6495;51.808;7.478;2022-08-04T12:33:01;2.28;;;2.08;;
12852;SDS011;6495;51.808;7.478;2022-08-04T12:35:43;2.08;;;1.77;;
12852;SDS011;6495;51.808;7.478;2022-08-04T12:38:39;6.97;;;2.10;;
12852;SDS011;6495;51.808;7.478;2022-08-04T12:41:22;3.95;;;2.00;;
12852;SDS011;6495;51.808;7.478;2022-08-04T12:44:04;4.07;;;2.10;;
12852;SDS011;6495;51.808;7.478;2022-08-04T12:46:58;7.28;;;2.40;;
12852;SDS011;6495;51.808;7.478;2022-08-04T12:49:51;2.33;;;1.80;;
12852;SDS011;6495;51.808;7.478;2022-08-04T12:52:26;3.80;;;1.90;;
12852;SDS011;6495;51.808;7.478;2022-08-04T12:55:18;2.47;;;1.90;;
12852;SDS011;6495;51.808;7.478;2022-08-04T12:57:51;3.67;;;1.90;;
12852;SDS011;6495;51.808;7.478;2022-08-04T13:00:22;3.58;;;1.88;;
12852;SDS011;6495;51.808;7.478;2022-08-04T13:02:59;3.47;;;1.88;;
12852;SDS011;6495;51.808;7.478;2022-08-04T13:05:36;5.10;;;1.83;;
12852;SDS011;6495;51.808;7.478;2022-08-04T13:08:08;4.25;;;1.92;;
12852;SDS011;6495;51.808;7.478;2022-08-04T13:10:40;6.18;;;2.00;;
12852;SDS011;6495;51.808;7.478;2022-08-04T13:13:14;3.33;;;2.13;;
12852;SDS011;6495;51.808;7.478;2022-08-04T13:15:55;5.28;;;2.05;;
12852;SDS011;6495;51.808;7.478;2022-08-04T13:18:29;5.05;;;2.28;;
12852;SDS011;6495;51.808;7.478;2022-08-04T13:21:09;6.00;;;2.40;;
12852;SDS011;6495;51.808;7.478;2022-08-04T13:24:05;5.55;;;2.83;;
12852;SDS011;6495;51.808;7.478;2022-08-04T13:27:01;5.63;;;2.40;;
12852;SDS011;6495;51.808;7.478;2022-08-04T13:29:35;6.82;;;2.67;;
12852;SDS011;6495;51.808;7.478;2022-08-04T13:32:27;34.90;;;3.65;;
12852;SDS011;6495;51.808;7.478;2022-08-04T13:34:59;4.88;;;2.30;;
12852;SDS011;6495;51.808;7.478;2022-08-04T13:37:30;4.05;;;2.28;;
12852;SDS011;6495;51.808;7.478;2022-08-04T13:40:05;3.70;;;2.20;;
12852;SDS011;6495;51.808;7.478;2022-08-04T13:42:44;5.30;;;2.40;;
12852;SDS011;6495;51.808;7.478;2022-08-04T13:45:14;5.35;;;2.42;;
12852;SDS011;6495;51.808;7.478;2022-08-04T13:47:49;3.80;;;2.78;;
12852;SDS011;6495;51.808;7.478;2022-08-04T13:50:43;5.35;;;2.78;;
12852;SDS011;6495;51.808;7.478;2022-08-04T13:53:15;5.55;;;2.90;;
12852;SDS011;6495;51.808;7.478;2022-08-04T13:55:47;8.68;;;2.72;;
12852;SDS011;6495;51.808;7.478;2022-08-04T13:58:28;4.50;;;2.13;;
12852;SDS011;6495;51.808;7.478;2022-08-04T14:01:06;10.05;;;2.70;;
12852;SDS011;6495;51.808;7.478;2022-08-04T14:03:43;3.55;;;2.35;;
12852;SDS011;6495;51.808;7.478;2022-08-04T14:06:23;6.43;;;2.50;;
12852;SDS011;6495;51.808;7.478;2022-08-04T14:08:56;6.15;;;2.03;;
12852;SDS011;6495;51.808;7.478;2022-08-04T14:11:30;3.58;;;2.22;;
12852;SDS011;6495;51.808;7.478;2022-08-04T14:14:25;4.90;;;3.00;;
12852;SDS011;6495;51.808;7.478;2022-08-04T14:16:59;3.15;;;2.33;;
12852;SDS011;6495;51.808;7.478;2022-08-04T14:22:29;3.75;;;2.28;;
12852;SDS011;6495;51.808;7.478;2022-08-04T14:25:01;4.80;;;2.55;;
12852;SDS011;6495;51.808;7.478;2022-08-04T14:27:43;5.70;;;2.67;;
12852;SDS011;6495;51.808;7.478;2022-08-04T14:30:23;2.47;;;2.20;;
12852;SDS011;6495;51.808;7.478;2022-08-04T14:32:54;3.00;;;2.17;;
12852;SDS011;6495;51.808;7.478;2022-08-04T14:35:54;4.15;;;2.50;;
12852;SDS011;6495;51.808;7.478;2022-08-04T14:38:45;5.47;;;2.30;;
12852;SDS011;6495;51.808;7.478;2022-08-04T14:41:46;3.10;;;2.08;;
12852;SDS011;6495;51.808;7.478;2022-08-04T14:44:16;5.53;;;2.30;;
12852;SDS011;6495;51.808;7.478;2022-08-04T14:47:02;10.23;;;6.60;;
12852;SDS011;6495;51.808;7.478;2022-08-04T14:49:52;4.25;;;3.20;;
12852;SDS011;6495;51.808;7.478;2022-08-04T14:52:27;7.43;;;2.58;;
12852;SDS011;6495;51.808;7.478;2022-08-04T14:57:57;4.93;;;3.30;;
12852;SDS011;6495;51.808;7.478;2022-08-04T15:00:50;3.63;;;2.20;;
12852;SDS011;6495;51.808;7.478;2022-08-04T15:03:38;6.78;;;2.80;;
12852;SDS011;6495;51.808;7.478;2022-08-04T15:06:18;4.35;;;2.33;;
12852;SDS011;6495;51.808;7.478;2022-08-04T15:08:49;8.35;;;2.42;;
12852;SDS011;6495;51.808;7.478;2022-08-04T15:11:23;4.53;;;2.40;;
12852;SDS011;6495;51.808;7.478;2022-08-04T15:13:54;4.72;;;2.28;;
12852;SDS011;6495;51.808;7.478;2022-08-04T15:16:25;5.65;;;2.65;;
12852;SDS011;6495;51.808;7.478;2022-08-04T15:18:58;4.85;;;2.30;;
12852;SDS011;6495;51.808;7.478;2022-08-04T15:21:28;4.78;;;2.15;;
12852;SDS011;6495;51.808;7.478;2022-08-04T15:23:57;5.78;;;2.45;;
12852;SDS011;6495;51.808;7.478;2022-08-04T15:26:27;4.75;;;2.10;;
12852;SDS011;6495;51.808;7.478;2022-08-04T15:29:04;3.13;;;2.22;;
12852;SDS011;6495;51.808;7.478;2022-08-04T15:31:42;6.03;;;2.22;;
12852;SDS011;6495;51.808;7.478;2022-08-04T15:34:43;4.38;;;2.13;;
12852;SDS011;6495;51.808;7.478;2022-08-04T15:37:14;3.75;;;2.05;;
12852;SDS011;6495;51.808;7.478;2022-08-04T15:39:54;4.68;;;2.10;;
12852;SDS011;6495;51.808;7.478;2022-08-04T15:42:35;4.18;;;2.00;;
12852;SDS011;6495;51.808;7.478;2022-08-04T15:45:17;3.42;;;2.33;;
12852;SDS011;6495;51.808;7.478;2022-08-04T15:51:01;7.22;;;2.10;;
12852;SDS011;6495;51.808;7.478;2022-08-04T15:56:58;5.95;;;2.03;;
12852;SDS011;6495;51.808;7.478;2022-08-04T16:05:28;2.15;;;1.85;;
12852;SDS011;6495;51.808;7.478;2022-08-04T16:08:15;6.53;;;2.28;;
12852;SDS011;6495;51.808;7.478;2022-08-04T16:10:45;2.50;;;2.15;;
12852;SDS011;6495;51.808;7.478;2022-08-04T16:13:21;3.45;;;2.13;;
12852;SDS011;6495;51.808;7.478;2022-08-04T16:15:58;6.03;;;2.25;;
12852;SDS011;6495;51.808;7.478;2022-08-04T16:18:37;6.40;;;2.33;;
12852;SDS011;6495;51.808;7.478;2022-08-04T16:21:20;4.03;;;2.42;;
12852;SDS011;6495;51.808;7.478;2022-08-04T16:24:05;2.88;;;2.10;;
12852;SDS011;6495;51.808;7.478;2022-08-04T16:26:49;2.97;;;2.38;;
12852;SDS011;6495;51.808;7.478;2022-08-04T16:29:25;3.40;;;2.45;;
12852;SDS011;6495;51.808;7.478;2022-08-04T16:32:17;4.47;;;2.03;;
12852;SDS011;6495;51.808;7.478;2022-08-04T16:34:53;5.35;;;2.10;;
12852;SDS011;6495;51.808;7.478;2022-08-04T16:37:31;5.18;;;2.00;;
12852;SDS011;6495;51.808;7.478;2022-08-04T16:43:05;3.80;;;1.85;;
12852;SDS011;6495;51.808;7.478;2022-08-04T16:45:39;2.40;;;1.83;;
12852;SDS011;6495;51.808;7.478;2022-08-04T16:48:12;2.75;;;1.80;;
12852;SDS011;6495;51.808;7.478;2022-08-04T16:50:46;2.30;;;1.75;;
12852;SDS011;6495;51.808;7.478;2022-08-04T16:53:35;2.85;;;2.10;;
12852;SDS011;6495;51.808;7.478;2022-08-04T16:56:30;3.30;;;2.00;;
12852;SDS011;6495;51.808;7.478;2022-08-04T16:59:04;2.05;;;1.83;;
12852;SDS011;6495;51.808;7.478;2022-08-04T17:01:34;2.60;;;2.30;;
12852;SDS011;6495;51.808;7.478;2022-08-04T17:04:04;3.30;;;2.28;;
12852;SDS011;6495;51.808;7.478;2022-08-04T17:06:33;3.22;;;2.10;;
12852;SDS011;6495;51.808;7.478;2022-08-04T17:09:05;3.13;;;1.90;;
12852;SDS011;6495;51.808;7.478;2022-08-04T17:11:38;3.25;;;2.22;;
12852;SDS011;6495;51.808;7.478;2022-08-04T17:14:07;6.88;;;2.50;;
12852;SDS011;6495;51.808;7.478;2022-08-04T17:16:36;1.98;;;1.70;;
12852;SDS011;6495;51.808;7.478;2022-08-04T17:19:08;4.40;;;1.90;;
12852;SDS011;6495;51.808;7.478;2022-08-04T17:21:51;3.55;;;1.88;;
12852;SDS011;6495;51.808;7.478;2022-08-04T17:24:29;2.05;;;1.85;;
12852;SDS011;6495;51.808;7.478;2022-08-04T17:27:00;2.70;;;2.05;;
12852;SDS011;6495;51.808;7.478;2022-08-04T17:29:49;4.88;;;2.60;;
12852;SDS011;6495;51.808;7.478;2022-08-04T17:32:18;2.92;;;2.00;;
12852;SDS011;6495;51.808;7.478;2022-08-04T17:34:49;3.53;;;2.33;;
12852;SDS011;6495;51.808;7.478;2022-08-04T17:37:20;4.28;;;2.15;;